Time;durP1;ratioP1;P1;durP2;ratioP2;P2;SDS_P1;SDS_P2;PMS_P1;PMS_P2;Temp;Humidity;BMP_temperature;BMP_pressure;BME280_temperature;BME280_humidity;BME280_pressure;Samples;Min_cycle;Max_cycle;Signal;HPM_P1;HPM_P2
2022/09/24 00:01:14;;;;;;;2.25;1.90;;;;;;;7.81;100.00;99048.89;1734759;82;20993;-62
2022/09/24 00:03:44;;;;;;;1.90;1.67;;;;;;;7.83;100.00;99047.55;1735387;81;21536;-62
2022/09/24 00:06:13;;;;;;;2.45;2.17;;;;;;;7.86;100.00;99042.26;1731399;81;20953;-61
2022/09/24 00:08:40;;;;;;;1.95;1.85;;;;;;;7.88;100.00;99043.89;1724046;82;21049;-62
2022/09/24 00:11:10;;;;;;;1.98;1.82;;;;;;;7.92;100.00;99042.04;1734493;82;20982;-62
2022/09/24 00:16:52;;;;;;;1.70;1.60;;;;;;;7.94;100.00;99032.47;1727604;82;21142;-63
2022/09/24 00:19:18;;;;;;;2.12;1.92;;;;;;;7.94;100.00;99037.20;1728630;82;20943;-62
2022/09/24 00:21:45;;;;;;;1.40;1.30;;;;;;;7.93;100.00;99043.73;1738452;82;21083;-62
2022/09/24 00:26:48;;;;;;;1.95;1.70;;;;;;;7.93;100.00;99040.69;1738228;82;20936;-63
2022/09/24 00:26:50;;;;;;;2.05;1.82;;;;;;;7.92;100.00;99034.27;1736611;82;21017;-62
2022/09/24 00:29:22;;;;;;;1.72;1.62;;;;;;;7.94;100.00;99035.06;1732454;82;21242;-63
2022/09/24 00:31:50;;;;;;;;;;;;;;;7.95;100.00;99037.59;1738356;82;21418;-62
2022/09/24 00:34:17;;;;;;;3.05;1.70;;;;;;;7.99;100.00;99027.13;1737925;82;20151;-62
2022/09/24 00:36:45;;;;;;;2.55;1.70;;;;;;;7.99;100.00;99025.83;1741424;81;21077;-62
2022/09/24 00:39:13;;;;;;;2.35;1.72;;;;;;;8.02;100.00;99029.12;1735056;81;21408;-62
2022/09/24 00:41:45;;;;;;;1.77;1.67;;;;;;;8.05;100.00;99029.46;1716745;82;21229;-64
2022/09/24 00:44:44;;;;;;;1.82;1.50;;;;;;;8.07;100.00;99025.91;1737114;82;21437;-62
2022/09/24 00:47:32;;;;;;;2.42;1.70;;;;;;;8.09;100.00;99024.11;1725555;81;21143;-61
2022/09/24 00:50:09;;;;;;;2.12;1.92;;;;;;;8.11;100.00;99021.47;1736012;82;21041;-60
2022/09/24 00:52:41;;;;;;;1.85;1.50;;;;;;;8.12;100.00;99020.11;1722912;82;21033;-62
2022/09/24 00:55:08;;;;;;;1.60;1.50;;;;;;;8.12;100.00;99020.11;1730763;82;21160;-62
2022/09/24 00:57:36;;;;;;;1.50;1.40;;;;;;;8.11;100.00;99022.76;1731563;81;21488;-63
2022/09/24 01:00:06;;;;;;;2.98;1.40;;;;;;;8.12;100.00;99023.16;1731063;82;23046;-63
2022/09/24 01:02:36;;;;;;;1.60;1.50;;;;;;;8.09;100.00;99024.11;1729398;81;21017;-61
2022/09/24 01:05:04;;;;;;;3.25;1.60;;;;;;;8.10;100.00;99020.62;1727089;82;21089;-61
2022/09/24 01:07:31;;;;;;;2.58;2.30;;;;;;;8.10;100.00;99017.19;1725680;82;21853;-61
2022/09/24 01:09:58;;;;;;;1.80;1.40;;;;;;;8.08;100.00;99015.95;1734638;82;20986;-61
2022/09/24 01:12:33;;;;;;;1.50;1.40;;;;;;;8.08;100.00;99014.66;1734863;82;21085;-61
2022/09/24 01:15:30;;;;;;;4.53;1.60;;;;;;;8.08;100.00;99014.66;1733138;81;21041;-61
2022/09/24 01:18:25;;;;;;;3.67;1.60;;;;;;;8.11;100.00;99015.83;1733308;82;20958;-62
2022/09/24 01:21:30;;;;;;;1.52;1.42;;;;;;;8.11;100.00;99018.42;1726894;82;21766;-62
2022/09/24 01:24:31;;;;;;;1.45;1.35;;;;;;;8.11;100.00;99019.72;1731005;81;21049;-61
2022/09/24 01:27:29;;;;;;;1.40;1.30;;;;;;;8.09;100.00;99017.64;1729413;82;20977;-61
2022/09/24 01:30:10;;;;;;;3.52;1.60;;;;;;;8.08;100.00;99017.23;1731554;81;21478;-61
2022/09/24 01:32:48;;;;;;;4.22;1.57;;;;;;;8.06;100.00;99014.31;1725202;81;20949;-62
2022/09/24 01:35:29;;;;;;;3.95;1.32;;;;;;;8.04;100.00;99016.96;1734322;82;21783;-61
2022/09/24 01:38:00;;;;;;;2.15;1.50;;;;;;;8.07;100.00;99012.96;1738002;82;21560;-62
2022/09/24 01:40:27;;;;;;;3.60;1.77;;;;;;;8.06;100.00;99018.20;1740876;81;21469;-61
2022/09/24 01:42:56;;;;;;;2.60;1.60;;;;;;;8.06;100.00;99022.93;1735765;82;21088;-61
2022/09/24 01:45:23;;;;;;;1.37;1.27;;;;;;;8.05;100.00;99013.92;1737553;81;21088;-61
2022/09/24 01:47:49;;;;;;;1.45;1.10;;;;;;;8.04;100.00;99017.41;1734970;82;21160;-61
2022/09/24 01:50:17;;;;;;;3.40;1.50;;;;;;;8.01;100.00;99020.95;1735422;82;20990;-61
2022/09/24 01:53:06;;;;;;;5.70;1.87;;;;;;;8.00;100.00;99017.13;1736293;82;21485;-61
2022/09/24 01:55:37;;;;;;;2.50;1.70;;;;;;;7.99;100.00;99018.91;1733756;82;20942;-61
2022/09/24 01:58:07;;;;;;;2.50;1.50;;;;;;;7.99;100.00;99018.06;1725787;82;21545;-61
2022/09/24 02:00:38;;;;;;;2.25;1.30;;;;;;;7.99;100.00;99017.61;1737639;82;21303;-61
2022/09/24 02:03:15;;;;;;;2.08;1.72;;;;;;;7.99;100.00;99016.31;1734929;80;21048;-61
2022/09/24 02:06:02;;;;;;;2.90;1.77;;;;;;;7.99;100.00;99025.37;1737085;81;21421;-61
2022/09/24 02:08:34;;;;;;;2.00;1.65;;;;;;;7.99;100.00;99020.66;1737893;82;21009;-61
2022/09/24 02:11:13;;;;;;;2.42;1.50;;;;;;;7.98;100.00;99020.25;1732416;82;20950;-61
2022/09/24 02:13:55;;;;;;;7.50;1.40;;;;;;;7.99;100.00;99023.23;1731602;82;21237;-61
2022/09/24 02:16:28;;;;;;;2.22;1.42;;;;;;;8.01;100.00;99020.11;1733970;82;21070;-61
2022/09/24 02:18:56;;;;;;;1.98;1.65;;;;;;;8.03;100.00;99022.20;1722306;81;20963;-61
2022/09/24 02:21:23;;;;;;;2.47;1.65;;;;;;;8.06;100.00;99024.67;1731008;82;20959;-62
2022/09/24 02:24:07;;;;;;;3.77;1.45;;;;;;;8.08;100.00;99025.46;1732941;82;20994;-62
2022/09/24 02:26:34;;;;;;;1.92;1.70;;;;;;;8.08;100.00;99018.53;1730318;82;21167;-62
2022/09/24 02:29:00;;;;;;;1.82;1.72;;;;;;;8.09;100.00;99018.93;1713987;82;20961;-61
2022/09/24 02:31:32;;;;;;;1.70;1.60;;;;;;;8.08;100.00;99020.28;1731219;82;21003;-61
2022/09/24 02:34:20;;;;;;;2.08;1.70;;;;;;;8.09;100.00;99024.11;1730962;82;21501;-61
2022/09/24 02:36:54;;;;;;;1.95;1.45;;;;;;;8.13;100.00;99024.84;1716422;82;20954;-61
2022/09/24 02:39:21;;;;;;;1.40;1.30;;;;;;;8.14;100.00;99025.23;1737523;82;21125;-61
2022/09/24 02:41:48;;;;;;;2.30;2.10;;;;;;;8.13;100.00;99028.28;1734425;82;20989;-62
2022/09/24 02:44:15;;;;;;;2.22;1.77;;;;;;;8.16;100.00;99035.09;1735752;82;21465;-61
2022/09/24 02:46:45;;;;;;;3.20;1.77;;;;;;;8.18;100.00;99022.92;1734592;82;21069;-62
2022/09/24 02:49:13;;;;;;;5.30;1.55;;;;;;;8.21;100.00;99027.51;1730823;81;21104;-61
2022/09/24 02:51:41;;;;;;;2.45;1.40;;;;;;;8.24;100.00;99032.58;1737684;82;21110;-61
2022/09/24 02:54:09;;;;;;;1.62;1.42;;;;;;;8.24;100.00;99027.39;1735068;82;21545;-61
2022/09/24 02:56:36;;;;;;;2.52;1.45;;;;;;;8.23;100.00;99031.34;1732392;82;21036;-61
2022/09/24 02:59:03;;;;;;;5.17;2.05;;;;;;;8.22;100.00;99027.06;1734826;82;21505;-61
2022/09/24 03:01:32;;;;;;;3.12;1.80;;;;;;;8.20;100.00;99028.41;1732927;82;20989;-62
2022/09/24 03:04:01;;;;;;;1.70;1.60;;;;;;;8.17;100.00;99022.53;1730782;81;21518;-61
2022/09/24 03:06:28;;;;;;;2.85;1.70;;;;;;;8.16;100.00;99024.28;1718862;82;20997;-61
2022/09/24 03:08:56;;;;;;;2.87;1.75;;;;;;;8.16;100.00;99031.20;1736624;82;20978;-61
2022/09/24 03:11:22;;;;;;;2.10;1.82;;;;;;;8.16;100.00;99026.02;1733551;81;21017;-62
2022/09/24 03:13:50;;;;;;;2.47;1.47;;;;;;;8.17;100.00;99029.85;1735584;82;21112;-61
2022/09/24 03:16:17;;;;;;;2.67;1.55;;;;;;;8.19;100.00;99027.20;1728887;82;21236;-61
2022/09/24 03:18:46;;;;;;;1.87;1.75;;;;;;;8.23;100.00;99032.18;1735152;82;21010;-61
2022/09/24 03:21:15;;;;;;;5.45;2.00;;;;;;;8.26;100.00;99034.66;1718791;82;21016;-62
2022/09/24 03:23:41;;;;;;;1.90;1.80;;;;;;;8.30;100.00;99045.75;1738579;81;21398;-62
2022/09/24 03:26:08;;;;;;;2.20;1.80;;;;;;;8.32;100.00;99036.20;1738339;82;21092;-61
2022/09/24 03:28:36;;;;;;;1.95;1.75;;;;;;;8.34;100.00;99035.70;1731471;81;21465;-61
2022/09/24 03:31:03;;;;;;;2.60;1.40;;;;;;;8.37;100.00;99036.03;1736038;82;21022;-61
2022/09/24 03:33:42;;;;;;;2.33;1.70;;;;;;;8.41;100.00;99040.17;1714622;82;20966;-61
2022/09/24 03:36:19;;;;;;;3.90;1.77;;;;;;;8.44;100.00;99040.90;1737757;81;21100;-61
2022/09/24 03:38:47;;;;;;;4.15;2.17;;;;;;;8.44;100.00;99038.30;1732505;81;21065;-62
2022/09/24 03:41:13;;;;;;;3.47;1.95;;;;;;;8.41;100.00;99041.46;1736358;82;22043;-61
2022/09/24 03:43:40;;;;;;;3.52;2.20;;;;;;;8.37;100.00;99043.81;1735803;82;20966;-62
2022/09/24 03:46:08;;;;;;;2.15;1.95;;;;;;;8.33;100.00;99040.94;1734265;82;21057;-62
2022/09/24 03:48:38;;;;;;;2.52;1.80;;;;;;;8.32;100.00;99039.22;1734045;82;21004;-61
2022/09/24 03:51:08;;;;;;;3.92;1.98;;;;;;;8.33;100.00;99039.64;1739577;82;20982;-61
2022/09/24 03:53:36;;;;;;;2.02;1.75;;;;;;;8.34;100.00;99045.22;1740723;82;21966;-61
2022/09/24 03:56:04;;;;;;;2.30;1.62;;;;;;;8.33;100.00;99044.38;1736430;82;20954;-62
2022/09/24 03:58:36;;;;;;;2.15;1.60;;;;;;;8.28;100.00;99043.22;1728435;82;21538;-62
2022/09/24 04:01:04;;;;;;;2.67;2.12;;;;;;;8.26;100.00;99039.84;1731237;82;21536;-61
2022/09/24 04:03:31;;;;;;;2.20;2.00;;;;;;;8.24;100.00;99045.98;1733471;81;21467;-61
2022/09/24 04:05:57;;;;;;;4.12;1.80;;;;;;;8.22;100.00;99040.02;1742062;82;22023;-61
2022/09/24 04:08:24;;;;;;;2.35;1.67;;;;;;;8.23;100.00;99040.41;1731092;81;21128;-61
2022/09/24 04:10:54;;;;;;;4.58;1.92;;;;;;;8.24;100.00;99049.41;1727643;82;20998;-61
2022/09/24 04:13:20;;;;;;;2.05;1.85;;;;;;;8.23;100.00;99039.11;1728133;81;20930;-61
2022/09/24 04:15:49;;;;;;;1.82;1.70;;;;;;;8.23;100.00;99047.73;1734057;81;21615;-61
2022/09/24 04:18:15;;;;;;;4.12;1.80;;;;;;;8.25;100.00;99048.52;1726150;81;21235;-61
2022/09/24 04:20:43;;;;;;;2.40;1.60;;;;;;;8.28;100.00;99049.70;1736473;81;20946;-61
2022/09/24 04:23:12;;;;;;;5.03;2.02;;;;;;;8.30;100.00;99050.94;1736867;81;21049;-61
2022/09/24 04:25:41;;;;;;;2.30;2.10;;;;;;;8.31;100.00;99053.92;1723175;82;20970;-61
2022/09/24 04:28:10;;;;;;;2.40;2.10;;;;;;;8.32;100.00;99046.58;1733285;82;20994;-61
2022/09/24 04:30:37;;;;;;;1.95;1.80;;;;;;;8.31;100.00;99055.22;1735052;82;21083;-60
2022/09/24 04:33:06;;;;;;;3.15;2.17;;;;;;;8.33;100.00;99059.92;1735742;81;21556;-61
2022/09/24 04:35:39;;;;;;;2.70;2.02;;;;;;;8.36;100.00;99060.26;1733697;82;21096;-62
2022/09/24 04:38:04;;;;;;;4.55;2.20;;;;;;;8.42;100.00;99054.81;1736370;81;20997;-61
2022/09/24 04:40:32;;;;;;;3.98;2.02;;;;;;;8.48;100.00;99061.06;1725326;81;21430;-61
2022/09/24 04:42:59;;;;;;;3.72;3.00;;;;;;;8.53;100.00;99057.39;1725685;81;21414;-62
2022/09/24 04:45:25;;;;;;;3.77;2.92;;;;;;;8.61;100.00;99064.84;1733171;82;21085;-63
2022/09/24 04:47:56;;;;;;;3.70;2.05;;;;;;;8.66;100.00;99065.97;1737753;82;21178;-62
2022/09/24 04:50:22;;;;;;;3.20;2.30;;;;;;;8.68;100.00;99063.70;1724609;82;20962;-63
2022/09/24 04:52:51;;;;;;;3.98;2.47;;;;;;;8.72;100.00;99064.43;1730592;81;20953;-63
2022/09/24 04:55:19;;;;;;;2.30;2.10;;;;;;;8.77;100.00;99062.50;1736917;82;21947;-61
2022/09/24 04:57:46;;;;;;;2.52;2.33;;;;;;;8.80;100.00;99064.95;1729361;81;21084;-61
2022/09/24 05:00:16;;;;;;;1.92;1.82;;;;;;;8.83;100.00;99064.83;1721204;81;21223;-62
2022/09/24 05:02:44;;;;;;;4.20;3.20;;;;;;;8.84;100.00;99062.63;1730087;82;21026;-61
2022/09/24 05:05:12;;;;;;;4.90;4.50;;;;;;;8.88;100.00;99069.38;1732109;82;20946;-61
2022/09/24 05:07:40;;;;;;;8.78;3.55;;;;;;;8.94;100.00;99069.14;1736869;82;21139;-61
2022/09/24 05:10:08;;;;;;;2.58;2.37;;;;;;;9.03;100.00;99067.90;1734531;81;21056;-61
2022/09/24 05:12:35;;;;;;;4.20;2.58;;;;;;;9.14;100.00;99070.45;1732234;82;21496;-61
2022/09/24 05:15:03;;;;;;;3.62;2.58;;;;;;;9.25;100.00;99076.02;1734761;81;21424;-61
2022/09/24 05:17:30;;;;;;;2.62;2.42;;;;;;;9.36;100.00;99081.23;1739938;81;21493;-62
2022/09/24 05:19:58;;;;;;;2.67;2.40;;;;;;;9.44;100.00;99080.42;1733497;81;21689;-61
2022/09/24 05:22:26;;;;;;;2.52;2.33;;;;;;;9.56;100.00;99073.42;1727356;82;21069;-61
2022/09/24 05:24:55;;;;;;;2.60;2.40;;;;;;;9.63;100.00;99074.82;1734788;82;21522;-61
2022/09/24 05:27:22;;;;;;;3.12;2.83;;;;;;;9.69;100.00;99073.27;1733519;81;21473;-62
2022/09/24 05:29:50;;;;;;;3.60;3.00;;;;;;;9.70;100.00;99076.70;1733230;81;20986;-62
2022/09/24 05:32:18;;;;;;;4.50;2.67;;;;;;;9.72;100.00;99080.08;1736208;82;22255;-63
2022/09/24 05:34:45;;;;;;;2.87;2.52;;;;;;;9.73;100.00;99078.72;1734449;82;20990;-62
2022/09/24 05:37:12;;;;;;;2.80;2.40;;;;;;;9.77;100.00;99073.78;1735382;82;21032;-62
2022/09/24 05:39:39;;;;;;;3.42;3.12;;;;;;;9.81;100.00;99077.90;1728507;82;21454;-62
2022/09/24 05:42:14;;;;;;;3.10;2.75;;;;;;;9.88;100.00;99086.27;1731063;82;20985;-62
2022/09/24 05:44:43;;;;;;;3.85;3.37;;;;;;;9.90;100.00;99081.86;1731601;82;23144;-62
2022/09/24 05:47:12;;;;;;;2.90;2.70;;;;;;;9.90;100.00;99082.70;1731491;81;21522;-63
2022/09/24 05:49:39;;;;;;;2.92;2.62;;;;;;;9.92;100.00;99083.48;1734810;82;20941;-62
2022/09/24 05:52:05;;;;;;;3.00;2.47;;;;;;;9.93;100.00;99076.08;1736531;81;21422;-62
2022/09/24 05:54:33;;;;;;;3.55;2.92;;;;;;;9.92;100.00;99083.48;1730921;81;21368;-62
2022/09/24 05:57:00;;;;;;;4.12;3.47;;;;;;;9.92;100.00;99088.67;1730254;82;21928;-62
2022/09/24 05:59:26;;;;;;;6.53;2.72;;;;;;;9.95;100.00;99081.20;1734913;81;20984;-61
2022/09/24 06:01:53;;;;;;;2.58;2.33;;;;;;;10.02;100.00;99081.29;1738152;82;21096;-61
2022/09/24 06:04:20;;;;;;;4.10;3.77;;;;;;;10.10;100.00;99083.55;1730745;81;21076;-62
2022/09/24 06:06:47;;;;;;;5.20;3.27;;;;;;;10.17;100.00;99088.87;1731482;82;21105;-62
2022/09/24 06:09:14;;;;;;;4.67;3.42;;;;;;;10.27;100.00;99084.95;1730639;81;21148;-62
2022/09/24 06:11:42;;;;;;;4.30;3.08;;;;;;;10.32;100.00;99090.78;1731165;82;21079;-62
2022/09/24 06:14:11;;;;;;;3.17;2.95;;;;;;;10.35;100.00;99091.95;1729678;81;21147;-62
2022/09/24 06:16:37;;;;;;;4.10;2.87;;;;;;;10.42;100.00;99094.63;1730324;82;21010;-62
2022/09/24 06:19:04;;;;;;;4.72;3.00;;;;;;;10.46;100.00;99097.48;1729941;82;21075;-61
2022/09/24 06:21:31;;;;;;;4.85;3.30;;;;;;;10.49;100.00;99102.53;1733995;81;21938;-62
2022/09/24 06:23:57;;;;;;;4.67;3.58;;;;;;;10.51;100.00;99103.77;1732022;82;20959;-62
2022/09/24 06:26:25;;;;;;;2.87;2.65;;;;;;;10.57;100.00;99105.63;1733104;82;21045;-63
2022/09/24 06:28:51;;;;;;;3.52;3.22;;;;;;;10.62;100.00;99116.64;1716630;82;20980;-62
2022/09/24 06:31:18;;;;;;;4.62;3.72;;;;;;;10.62;100.00;99114.03;1739719;82;21005;-63
2022/09/24 06:33:44;;;;;;;6.15;4.55;;;;;;;10.64;100.00;99120.47;1731225;81;21172;-63
2022/09/24 06:36:11;;;;;;;5.90;3.62;;;;;;;10.66;100.00;99122.54;1731458;81;21014;-63
2022/09/24 06:38:39;;;;;;;6.15;3.33;;;;;;;10.65;100.00;99125.60;1738265;81;21002;-62
2022/09/24 06:41:06;;;;;;;4.62;3.47;;;;;;;10.64;100.00;99128.27;1731749;81;21002;-63
2022/09/24 06:43:34;;;;;;;3.83;3.50;;;;;;;10.63;100.00;99135.23;1732997;82;20942;-61
2022/09/24 06:46:00;;;;;;;6.55;3.80;;;;;;;10.55;99.50;99132.63;1732719;82;21139;-61
2022/09/24 06:48:27;;;;;;;5.28;3.83;;;;;;;10.45;100.00;99132.64;1728847;82;21457;-62
2022/09/24 06:50:55;;;;;;;3.67;3.30;;;;;;;10.42;100.00;99143.18;1726893;81;20953;-61
2022/09/24 06:53:21;;;;;;;6.22;3.22;;;;;;;10.46;100.00;99136.48;1734583;82;20942;-62
2022/09/24 06:55:48;;;;;;;3.95;3.52;;;;;;;10.49;100.00;99138.94;1734165;82;21061;-61
2022/09/24 06:58:18;;;;;;;3.58;3.22;;;;;;;10.54;100.00;99143.94;1725951;81;21149;-61
2022/09/24 07:00:52;;;;;;;5.15;3.35;;;;;;;10.56;100.00;99146.01;1732647;82;21006;-62
2022/09/24 07:03:18;;;;;;;3.58;3.12;;;;;;;10.59;100.00;99151.07;1735326;82;21065;-62
2022/09/24 07:05:45;;;;;;;8.93;3.75;;;;;;;10.65;100.00;99153.37;1732738;82;21047;-62
2022/09/24 07:08:12;;;;;;;4.40;2.80;;;;;;;10.74;100.00;99149.05;1729969;82;20946;-62
2022/09/24 07:10:47;;;;;;;9.33;3.47;;;;;;;10.83;100.00;99149.05;1726694;82;21765;-62
2022/09/24 07:13:15;;;;;;;6.25;3.72;;;;;;;10.87;98.07;99154.05;1729028;81;21542;-61
2022/09/24 07:15:42;;;;;;;3.70;3.17;;;;;;;10.86;97.79;99157.56;1727198;81;20958;-62
2022/09/24 07:18:09;;;;;;;4.08;2.50;;;;;;;10.89;98.00;99157.42;1729362;81;20962;-61
2022/09/24 07:20:36;;;;;;;4.10;2.90;;;;;;;10.94;97.33;99149.40;1731874;82;21122;-62
2022/09/24 07:23:06;;;;;;;5.67;3.58;;;;;;;10.96;97.47;99153.62;1728782;82;21278;-62
2022/09/24 07:25:32;;;;;;;3.67;2.72;;;;;;;11.01;97.82;99153.38;1726613;81;20992;-62
2022/09/24 07:28:08;;;;;;;3.27;2.87;;;;;;;11.08;96.67;99162.58;1739360;81;20930;-62
2022/09/24 07:30:35;;;;;;;5.10;2.70;;;;;;;11.12;93.70;99157.63;1736246;82;21001;-61
2022/09/24 07:33:02;;;;;;;4.67;2.92;;;;;;;11.11;93.28;99148.13;1725731;81;20988;-61
2022/09/24 07:35:28;;;;;;;4.53;3.02;;;;;;;11.10;94.06;99152.10;1733602;82;21144;-61
2022/09/24 07:38:01;;;;;;;2.95;2.70;;;;;;;11.16;94.53;99151.81;1728191;81;21010;-61
2022/09/24 07:40:29;;;;;;;5.35;2.80;;;;;;;11.24;93.42;99150.50;1735328;81;20989;-62
2022/09/24 07:42:57;;;;;;;4.97;2.77;;;;;;;11.31;93.51;99151.89;1735070;81;21021;-61
2022/09/24 07:45:29;;;;;;;5.92;3.12;;;;;;;11.40;93.00;99157.09;1730471;81;21057;-62
2022/09/24 07:48:00;;;;;;;4.62;2.98;;;;;;;11.50;92.65;99153.13;1727150;81;21209;-64
2022/09/24 07:50:28;;;;;;;2.87;2.67;;;;;;;11.62;92.49;99156.85;1715340;82;21612;-62
2022/09/24 07:52:55;;;;;;;4.95;2.40;;;;;;;11.73;91.39;99150.66;1726469;81;21135;-63
2022/09/24 07:55:23;;;;;;;4.65;2.47;;;;;;;11.81;90.01;99165.45;1734136;82;21686;-60
2022/09/24 07:57:51;;;;;;;3.20;2.42;;;;;;;11.86;89.56;99159.55;1737779;82;21477;-61
2022/09/24 08:00:18;;;;;;;3.50;2.20;;;;;;;11.90;89.02;99162.84;1734209;82;21838;-61
2022/09/24 08:02:45;;;;;;;4.53;2.62;;;;;;;11.98;89.72;99162.84;1733270;82;21128;-61
2022/09/24 08:05:16;;;;;;;6.90;2.58;;;;;;;12.13;88.98;99157.74;1721356;82;21049;-62
2022/09/24 08:07:42;;;;;;;3.42;2.17;;;;;;;12.23;87.61;99161.53;1733929;81;21001;-62
2022/09/24 08:10:09;;;;;;;2.30;2.10;;;;;;;12.33;85.98;99164.89;1734402;82;21006;-63
2022/09/24 08:12:35;;;;;;;4.58;2.75;;;;;;;12.41;85.79;99156.64;1736075;82;21962;-62
2022/09/24 08:15:02;;;;;;;9.18;2.25;;;;;;;12.54;85.69;99162.05;1735776;82;20950;-61
2022/09/24 08:17:30;;;;;;;9.15;2.20;;;;;;;12.64;83.98;99153.63;1731632;82;21128;-62
2022/09/24 08:19:58;;;;;;;5.67;1.62;;;;;;;12.73;83.82;99164.03;1735075;82;21553;-62
2022/09/24 08:22:25;;;;;;;5.60;1.92;;;;;;;12.83;82.08;99159.97;1736628;81;21029;-61
2022/09/24 08:24:52;;;;;;;2.47;1.50;;;;;;;12.97;79.97;99163.14;1735157;81;21235;-61
2022/09/24 08:27:19;;;;;;;3.40;1.92;;;;;;;12.97;79.97;99163.14;1732932;82;20941;-61
2022/09/24 08:29:46;;;;;;;2.12;1.55;;;;;;;13.08;79.30;99171.20;1732669;82;20981;-62
2022/09/24 08:32:12;;;;;;;1.95;1.75;;;;;;;13.07;77.61;99164.30;1726973;81;21064;-62
2022/09/24 08:34:39;;;;;;;1.62;1.52;;;;;;;13.07;77.61;99164.30;1735582;81;21579;-62
2022/09/24 08:37:07;;;;;;;3.95;2.00;;;;;;;12.99;78.49;99170.43;1729209;81;21690;-62
2022/09/24 08:39:34;;;;;;;4.00;2.30;;;;;;;12.99;78.49;99170.43;1737935;81;21186;-62
2022/09/24 08:42:08;;;;;;;2.65;1.82;;;;;;;12.98;78.74;99165.67;1738568;81;20953;-62
2022/09/24 08:47:42;;;;;;;2.27;1.82;;;;;;;12.81;79.19;99174.03;1730228;82;21120;-60
2022/09/24 08:50:19;;;;;;;1.72;1.50;;;;;;;12.81;79.19;99174.03;1735147;82;21124;-61
2022/09/24 08:53:14;;;;;;;2.58;1.47;;;;;;;12.78;78.98;99169.84;1744609;82;21464;-61
2022/09/24 08:55:50;;;;;;;4.42;2.47;;;;;;;12.78;77.52;99170.31;1738288;80;20938;-61
2022/09/24 08:58:31;;;;;;;2.72;1.98;;;;;;;12.76;78.02;99173.00;1736809;81;21057;-62
2022/09/24 09:01:18;;;;;;;7.83;2.52;;;;;;;12.78;77.88;99172.92;1731051;81;21112;-61
2022/09/24 09:03:59;;;;;;;6.70;1.90;;;;;;;12.89;77.92;99170.55;1730544;81;21551;-62
2022/09/24 09:06:43;;;;;;;3.00;2.00;;;;;;;12.89;77.92;99170.55;1740151;82;21001;-61
2022/09/24 09:09:29;;;;;;;2.58;1.70;;;;;;;12.98;77.45;99171.35;1731278;82;21434;-62
2022/09/24 09:12:03;;;;;;;2.05;1.35;;;;;;;13.07;77.83;99168.20;1716887;81;21022;-62
2022/09/24 09:15:01;;;;;;;2.25;1.52;;;;;;;13.21;76.20;99177.43;1733893;82;21065;-63
2022/09/24 09:17:50;;;;;;;2.72;1.40;;;;;;;13.33;71.95;99170.69;1737682;81;21955;-61
2022/09/24 09:20:42;;;;;;;2.37;1.90;;;;;;;13.33;71.95;99170.69;1735107;81;21080;-61
2022/09/24 09:23:33;;;;;;;1.45;1.35;;;;;;;13.24;71.87;99164.67;1724631;81;20981;-62
2022/09/24 09:26:00;;;;;;;6.55;2.15;;;;;;;13.21;73.64;99162.23;1731313;82;21156;-61
2022/09/24 09:28:26;;;;;;;3.10;1.80;;;;;;;13.21;73.64;99162.23;1717802;82;21599;-62
2022/09/24 09:31:19;;;;;;;8.28;2.95;;;;;;;13.33;74.47;99157.63;1722090;81;22504;-63
2022/09/24 09:34:11;;;;;;;3.45;1.50;;;;;;;13.33;74.47;99157.63;1724150;81;21552;-61
2022/09/24 09:37:11;;;;;;;4.05;1.45;;;;;;;13.44;73.09;99152.14;1727844;81;21469;-62
2022/09/24 09:40:04;;;;;;;2.20;1.40;;;;;;;13.49;73.04;99154.50;1732623;81;21575;-61
2022/09/24 09:42:34;;;;;;;3.20;1.77;;;;;;;13.54;72.89;99159.46;1731222;82;21117;-61
2022/09/24 09:45:36;;;;;;;1.67;1.40;;;;;;;13.57;73.23;99152.75;1731624;81;21203;-61
2022/09/24 09:48:03;;;;;;;1.50;1.40;;;;;;;13.59;72.55;99154.81;1732982;82;21235;-62
2022/09/24 09:50:46;;;;;;;3.80;1.30;;;;;;;13.54;71.16;99147.23;1732717;81;21036;-61
2022/09/24 09:53:23;;;;;;;;;;;;;;;13.46;71.12;99150.75;1736429;81;20953;-62
2022/09/24 09:56:06;;;;;;;1.67;1.57;;;;;;;13.37;70.81;99152.14;1732560;81;20128;-62
2022/09/24 09:58:35;;;;;;;1.37;1.27;;;;;;;13.32;70.12;99143.72;1737559;81;20946;-61
2022/09/24 10:01:11;;;;;;;1.40;1.27;;;;;;;13.33;69.12;99135.42;1711817;82;21061;-62
2022/09/24 10:03:51;;;;;;;1.42;1.25;;;;;;;13.33;69.12;99135.42;1731353;82;20954;-62
2022/09/24 10:06:30;;;;;;;1.72;1.60;;;;;;;13.51;68.72;99137.42;1740734;81;21472;-62
2022/09/24 10:09:18;;;;;;;1.35;1.25;;;;;;;13.51;68.72;99137.42;1732389;82;20975;-63
2022/09/24 10:11:46;;;;;;;2.35;1.20;;;;;;;13.60;67.69;99135.56;1727198;82;21140;-63
2022/09/24 10:14:18;;;;;;;1.37;0.98;;;;;;;13.65;67.35;99130.45;1737854;82;21014;-61
2022/09/24 10:16:49;;;;;;;4.20;1.80;;;;;;;13.79;67.18;99127.84;1735563;82;21548;-62
2022/09/24 10:19:24;;;;;;;1.35;1.20;;;;;;;14.05;67.75;99124.13;1724969;82;21086;-62
2022/09/24 10:21:53;;;;;;;6.83;1.10;;;;;;;14.12;67.42;99118.91;1723973;81;21095;-61
2022/09/24 10:24:23;;;;;;;2.72;1.27;;;;;;;14.12;67.42;99118.91;1731338;81;21129;-61
2022/09/24 10:26:50;;;;;;;3.50;2.10;;;;;;;14.21;66.15;99125.33;1722686;81;21032;-62
2022/09/24 10:32:20;;;;;;;5.42;1.12;;;;;;;14.41;64.82;99116.65;1737148;82;20969;-62
2022/09/24 10:34:59;;;;;;;2.30;1.00;;;;;;;14.55;64.80;99115.80;1730969;82;21053;-63
2022/09/24 10:37:28;;;;;;;3.08;1.00;;;;;;;14.79;64.37;99119.92;1729486;82;21638;-62
2022/09/24 10:40:12;;;;;;;3.22;1.37;;;;;;;14.92;63.28;99123.45;1728224;81;21060;-63
2022/09/24 10:42:38;;;;;;;1.37;1.20;;;;;;;14.87;62.14;99125.52;1739128;82;20994;-62
2022/09/24 10:45:08;;;;;;;3.75;1.20;;;;;;;14.69;60.56;99136.70;1716027;82;21075;-62
2022/09/24 10:47:43;;;;;;;2.87;1.17;;;;;;;14.46;62.84;99133.38;1736124;82;21084;-63
2022/09/24 10:50:32;;;;;;;2.45;1.17;;;;;;;14.19;64.17;99133.27;1733442;81;21086;-61
2022/09/24 10:53:15;;;;;;;5.08;1.57;;;;;;;14.01;65.87;99133.09;1737720;82;20950;-62
2022/09/24 10:56:12;;;;;;;1.62;1.05;;;;;;;13.91;67.19;99134.59;1729429;81;21666;-62
2022/09/24 10:59:05;;;;;;;6.85;1.77;;;;;;;13.83;66.91;99142.88;1729122;82;21013;-61
2022/09/24 11:01:47;;;;;;;3.92;1.47;;;;;;;13.71;66.98;99134.02;1714952;82;21066;-62
2022/09/24 11:04:21;;;;;;;3.33;1.52;;;;;;;13.61;65.49;99142.47;1719753;81;21875;-61
2022/09/24 11:07:36;;;;;;;2.22;1.65;;;;;;;13.61;65.49;99142.47;1732603;81;21505;-61
2022/09/24 11:10:58;;;;;;;1.45;1.10;;;;;;;13.56;64.11;99138.00;1730130;82;20998;-62
2022/09/24 11:13:39;;;;;;;;;;;;;;;13.51;64.43;99143.49;1738150;82;21061;-61
2022/09/24 11:16:22;;;;;;;3.60;0.80;;;;;;;13.50;65.26;99139.20;1736926;82;20168;-62
2022/09/24 11:19:09;;;;;;;2.67;1.10;;;;;;;13.52;64.88;99145.64;1732725;81;21172;-61
2022/09/24 11:22:09;;;;;;;2.35;1.07;;;;;;;13.48;65.70;99144.13;1741243;82;21081;-61
2022/09/24 11:25:09;;;;;;;3.92;1.30;;;;;;;13.45;66.07;99152.52;1737177;82;21061;-61
2022/09/24 11:28:01;;;;;;;2.35;0.80;;;;;;;13.47;65.79;99148.52;1733057;82;21875;-61
2022/09/24 11:30:49;;;;;;;3.00;1.30;;;;;;;13.50;65.48;99136.59;1739198;81;20993;-63
2022/09/24 11:33:27;;;;;;;1.10;1.00;;;;;;;13.72;65.83;99142.23;1731934;81;21153;-61
2022/09/24 11:36:19;;;;;;;1.20;1.10;;;;;;;13.72;65.83;99142.23;1731963;81;20975;-62
2022/09/24 11:39:15;;;;;;;0.95;0.88;;;;;;;13.88;63.74;99151.77;1720871;82;21001;-63
2022/09/24 11:42:19;;;;;;;1.90;1.32;;;;;;;13.87;61.43;99156.62;1731495;81;21000;-63
2022/09/24 11:45:27;;;;;;;1.37;1.02;;;;;;;13.68;62.70;99152.48;1683100;84;21067;-60
2022/09/24 11:48:35;;;;;;;2.10;1.30;;;;;;;13.47;64.13;99158.12;1730788;82;21851;-61
2022/09/24 11:51:53;;;;;;;1.67;1.40;;;;;;;13.37;64.06;99154.76;1734370;82;20994;-61
2022/09/24 11:54:37;;;;;;;3.05;1.30;;;;;;;13.37;64.06;99154.76;1733617;82;21069;-61
2022/09/24 11:57:34;;;;;;;3.45;1.20;;;;;;;13.27;62.60;99157.97;1730424;82;21560;-62
2022/09/24 12:00:15;;;;;;;3.40;1.20;;;;;;;13.17;63.17;99164.66;1740051;82;20997;-61
2022/09/24 12:03:01;;;;;;;1.65;1.00;;;;;;;12.99;63.47;99164.71;1736931;81;21890;-61
2022/09/24 12:05:36;;;;;;;1.87;0.90;;;;;;;12.85;64.36;99150.30;1744200;82;21017;-62
2022/09/24 12:08:17;;;;;;;2.85;1.35;;;;;;;12.76;64.64;99148.21;1737239;82;20953;-62
2022/09/24 12:11:01;;;;;;;3.52;0.90;;;;;;;12.79;65.62;99151.12;1732780;81;21073;-62
2022/09/24 12:13:40;;;;;;;1.92;1.20;;;;;;;12.87;66.63;99160.19;1714583;82;21009;-62